createdAt,value
2018-11-07T00:00:22.745Z,931.7
2018-11-07T00:01:22.696Z,931.7
2018-11-07T00:02:22.594Z,931.7
2018-11-07T00:03:22.492Z,931.7
2018-11-07T00:04:22.412Z,931.7
2018-11-07T00:05:22.778Z,931.7
2018-11-07T00:06:22.712Z,931.5
2018-11-07T00:07:22.622Z,931.6
2018-11-07T00:08:23.854Z,931.3
2018-11-07T00:09:23.817Z,931.7
2018-11-07T00:10:23.739Z,931.7
2018-11-07T00:11:23.649Z,931.5
2018-11-07T00:12:23.569Z,931.5
2018-11-07T00:13:23.480Z,931.7
2018-11-07T00:14:23.380Z,931.7
2018-11-07T00:15:23.803Z,931.5
2018-11-07T00:16:23.710Z,931.7
2018-11-07T00:17:23.631Z,931.6
2018-11-07T00:18:23.532Z,931.7
2018-11-07T00:19:23.765Z,931.7
2018-11-07T00:20:23.687Z,931.7
2018-11-07T00:21:23.629Z,931.5
2018-11-07T00:22:23.538Z,931.1
2018-11-07T00:23:23.459Z,931.7
2018-11-07T00:24:23.361Z,931.6
2018-11-07T00:25:23.710Z,931.6
2018-11-07T00:26:24.325Z,931.7
2018-11-07T00:27:24.265Z,931.6
2018-11-07T00:28:24.203Z,931.6
2018-11-07T00:29:24.111Z,931.6
2018-11-07T00:30:24.029Z,931.6
2018-11-07T00:31:23.941Z,931.6
2018-11-07T00:32:23.851Z,931.6
2018-11-07T00:33:23.775Z,931.7
2018-11-07T00:34:23.730Z,931.6
2018-11-07T00:35:24.326Z,931.5
2018-11-07T00:36:24.245Z,931.5
2018-11-07T00:37:24.195Z,931.6
2018-11-07T00:38:24.090Z,931.6
2018-11-07T00:39:24.002Z,931.6
2018-11-07T00:40:23.892Z,931.6
2018-11-07T00:41:23.803Z,931.6
2018-11-07T00:42:24.563Z,931.6
2018-11-07T00:43:24.525Z,931.6
2018-11-07T00:44:24.426Z,931.6
2018-11-07T00:45:24.773Z,931.6
2018-11-07T00:46:24.676Z,931.5
2018-11-07T00:47:24.648Z,931.5
2018-11-07T00:48:24.560Z,931.5
2018-11-07T00:49:24.467Z,931.5
2018-11-07T00:50:24.392Z,931.6
2018-11-07T00:51:24.312Z,931.5
2018-11-07T00:52:24.210Z,931.6
2018-11-07T00:53:24.145Z,931.5
2018-11-07T00:54:24.056Z,931.5
2018-11-07T00:55:24.403Z,931.5
2018-11-07T00:56:24.318Z,931.5
2018-11-07T02:10:52.185Z,931
2018-11-07T02:11:52.124Z,931.1
2018-11-07T02:12:52.036Z,931.1
2018-11-07T02:13:52.369Z,931
2018-11-07T02:14:52.150Z,931.1
2018-11-07T02:15:51.899Z,931.1
2018-11-07T02:16:51.634Z,930.9
2018-11-07T02:17:51.374Z,931.1
2018-11-07T02:18:51.108Z,931.1
2018-11-07T02:19:50.848Z,931
2018-11-07T02:20:50.592Z,931.1
2018-11-07T02:21:50.340Z,931
2018-11-07T02:22:50.080Z,931.1
2018-11-07T02:23:50.258Z,931
2018-11-07T02:24:50.015Z,931.1
2018-11-07T02:25:49.768Z,931.2
2018-11-07T02:26:49.504Z,931.2
2018-11-07T02:27:49.246Z,931
2018-11-07T02:28:48.980Z,931.2
2018-11-07T02:29:48.699Z,931.1
2018-11-07T02:30:48.469Z,931.1
2018-11-07T02:31:48.219Z,931.1
2018-11-07T02:32:47.956Z,931
2018-11-07T02:33:48.126Z,931.1
2018-11-07T02:34:47.867Z,931
2018-11-07T02:35:47.613Z,931
2018-11-07T02:36:47.616Z,931.1
2018-11-07T02:37:47.398Z,930.8
2018-11-07T02:38:47.143Z,931
2018-11-07T02:39:46.881Z,931
2018-11-07T02:40:46.616Z,931
2018-11-07T02:41:46.758Z,930.7
2018-11-07T02:42:46.564Z,931.1
2018-11-07T02:43:46.888Z,931.1
2018-11-07T02:44:46.814Z,931
2018-11-07T02:45:46.727Z,930.9
2018-11-07T02:46:46.639Z,930.9
2018-11-07T02:47:46.558Z,931
2018-11-07T02:48:46.482Z,931
2018-11-07T02:49:46.392Z,930.9
2018-11-07T02:50:46.314Z,930.9
2018-11-07T02:51:46.228Z,931
2018-11-07T02:52:46.147Z,930.8
2018-11-07T02:53:46.589Z,931
2018-11-07T02:54:46.493Z,931
2018-11-07T02:55:46.409Z,930.9
2018-11-07T02:56:46.314Z,931
2018-11-07T02:57:46.228Z,930.9
2018-11-07T02:58:46.143Z,930.9
2018-11-07T02:59:46.067Z,930.8
2018-11-07T03:00:46.015Z,930.7
2018-11-07T03:01:45.911Z,930.8
2018-11-07T03:02:45.818Z,930.7
2018-11-07T03:03:46.168Z,930.8
2018-11-07T03:04:46.462Z,930.9
2018-11-07T03:05:46.389Z,930.7
2018-11-07T03:06:46.300Z,930.7
2018-11-07T03:07:46.202Z,930.7
2018-11-07T03:08:46.108Z,930.8
2018-11-07T03:09:46.000Z,930.8
2018-11-07T03:10:46.825Z,930.7
2018-11-07T03:11:46.804Z,930.3
2018-11-07T03:12:46.726Z,930.7
2018-11-07T03:13:47.086Z,930.7
2018-11-07T03:14:46.961Z,930.6
2018-11-07T03:15:46.854Z,930.6
2018-11-07T03:16:46.774Z,930.6
2018-11-07T03:17:46.686Z,930.6
2018-11-07T03:18:46.592Z,930.7
2018-11-07T03:19:46.495Z,930.7
2018-11-07T03:20:46.405Z,930.6
2018-11-07T03:21:46.347Z,930.5
2018-11-07T03:22:46.230Z,930.7
2018-11-07T03:23:46.578Z,930.4
2018-11-07T03:24:46.484Z,930.6
2018-11-07T03:25:46.419Z,930.6
2018-11-07T03:26:46.305Z,930.6
2018-11-07T03:27:46.202Z,930.6
2018-11-07T03:28:46.109Z,930.6
2018-11-07T03:29:46.033Z,930.6
2018-11-07T03:30:45.958Z,930.6
2018-11-07T03:31:45.873Z,930.5
2018-11-07T03:32:45.788Z,930.6
2018-11-07T03:33:46.148Z,930.5
2018-11-07T03:34:46.072Z,930.6
2018-11-07T03:35:45.973Z,930.6
2018-11-07T03:36:45.873Z,930.6
2018-11-07T03:37:45.789Z,930.6
2018-11-07T03:38:45.692Z,930.7
2018-11-07T03:39:46.240Z,930.6
2018-11-07T03:40:46.200Z,930.6
2018-11-07T03:41:46.104Z,930.6
2018-11-07T03:42:46.025Z,930.6
2018-11-07T03:43:46.391Z,930.4
2018-11-07T03:44:46.293Z,930.5
2018-11-07T03:45:46.211Z,929.3
2018-11-07T03:46:46.139Z,930.6
2018-11-07T03:47:46.057Z,930.6
2018-11-07T03:48:45.961Z,930.6
2018-11-07T03:49:45.874Z,930.5
2018-11-07T03:50:45.807Z,930.6
2018-11-07T03:51:45.690Z,930.6
2018-11-07T03:52:45.612Z,930.6
2018-11-07T03:53:46.293Z,930.5
2018-11-07T03:54:46.200Z,930.5
2018-11-07T03:55:46.090Z,930.6
2018-11-07T03:56:46.044Z,930.5
2018-11-07T03:57:45.931Z,930.6
2018-11-07T03:58:45.816Z,930.5
2018-11-07T03:59:45.702Z,930.5
2018-11-07T04:00:45.624Z,930.5
2018-11-07T04:01:45.539Z,930.5
2018-11-07T04:02:45.461Z,930.6
2018-11-07T04:03:45.798Z,930.4
2018-11-07T04:04:45.715Z,930.5
2018-11-07T04:05:45.618Z,930.3
2018-11-07T04:06:45.548Z,930.4
2018-11-07T04:07:45.429Z,929.2
2018-11-07T04:08:45.349Z,930.4
2018-11-07T04:09:45.247Z,928.9
2018-11-07T04:10:45.135Z,930.3
2018-11-07T04:11:45.050Z,930.5
2018-11-07T04:12:44.959Z,929.2
2018-11-07T04:13:45.315Z,930.4
2018-11-07T04:14:45.070Z,930.3
2018-11-07T04:15:44.825Z,930.5
2018-11-07T04:16:44.552Z,930.4
2018-11-07T04:17:44.295Z,930.4
2018-11-07T04:18:44.054Z,930.6
2018-11-07T04:19:43.816Z,930.5
2018-11-07T04:20:43.552Z,930.5
2018-11-07T04:21:43.287Z,930.6
2018-11-07T04:22:44.068Z,930.6
2018-11-07T04:23:44.588Z,930.5
2018-11-07T04:24:44.517Z,930.4
2018-11-07T04:25:44.401Z,930.5
2018-11-07T04:26:44.289Z,930.4
2018-11-07T04:27:44.220Z,930.4
2018-11-07T04:28:44.110Z,930.4
2018-11-07T04:29:43.997Z,930.4
2018-11-07T04:30:43.902Z,930.3
2018-11-07T04:31:43.844Z,930.2
2018-11-07T04:32:43.803Z,930.3
2018-11-07T04:33:44.020Z,930.4
2018-11-07T04:34:43.766Z,930.2
2018-11-07T04:35:43.503Z,930.4
2018-11-07T04:36:43.232Z,930.4
2018-11-07T04:37:42.962Z,930.3
2018-11-07T04:38:42.706Z,930.3
2018-11-07T04:39:42.434Z,930.4
2018-11-07T04:40:42.175Z,930.4
2018-11-07T04:41:41.910Z,930.4
2018-11-07T04:42:41.646Z,930.4
2018-11-07T04:43:41.828Z,930.4
2018-11-07T04:44:41.582Z,930.2
2018-11-07T04:45:41.306Z,930.4
2018-11-07T04:46:41.040Z,930.3
2018-11-07T04:47:40.781Z,930.2
2018-11-07T04:48:40.530Z,930.4
2018-11-07T04:49:40.284Z,930.4
2018-11-07T04:50:40.031Z,930.4
2018-11-07T04:51:39.780Z,930.3
2018-11-07T04:52:39.518Z,930.3
2018-11-07T04:53:39.702Z,930
2018-11-07T04:54:39.448Z,930.4
2018-11-07T04:55:39.186Z,930.5
2018-11-07T04:56:38.930Z,930.4
2018-11-07T04:57:38.666Z,930.4
2018-11-07T04:58:38.402Z,930.2
2018-11-07T04:59:38.175Z,930.4
2018-11-07T05:00:37.908Z,929.9
2018-11-07T05:01:37.652Z,930.4
2018-11-07T05:02:37.437Z,930.4
2018-11-07T05:03:37.804Z,930.3
2018-11-07T05:04:37.704Z,930.4
2018-11-07T05:05:37.602Z,930.4
2018-11-07T05:06:37.516Z,930.4
2018-11-07T05:07:37.421Z,930.3
2018-11-07T05:08:37.786Z,930.3
2018-11-07T05:09:37.744Z,930.3
2018-11-07T05:10:37.669Z,930
2018-11-07T05:11:37.580Z,930.4
2018-11-07T05:12:37.501Z,930.4
2018-11-07T05:13:37.833Z,930.3
2018-11-07T05:14:37.739Z,930.4
2018-11-07T05:15:37.678Z,930.3
2018-11-07T05:16:37.578Z,930.5
2018-11-07T05:17:37.479Z,930.4
2018-11-07T05:18:37.391Z,930.5
2018-11-07T05:19:37.781Z,930.5
2018-11-07T05:20:37.784Z,930.4
2018-11-07T05:21:37.672Z,930.4
2018-11-07T05:22:37.574Z,930.3
2018-11-07T05:23:37.894Z,930.4
2018-11-07T05:24:37.812Z,930.4
2018-11-07T05:25:37.710Z,930.4
2018-11-07T05:26:37.631Z,930.4
2018-11-07T05:27:37.534Z,930.4
2018-11-07T05:28:37.432Z,930.4
2018-11-07T05:29:37.378Z,930.3
2018-11-07T05:30:37.288Z,930.3
2018-11-07T05:31:37.212Z,930.3
2018-11-07T05:32:37.120Z,930.4
2018-11-07T05:33:37.476Z,930.3
2018-11-07T05:34:37.383Z,930.3
2018-11-07T05:35:37.284Z,930.3
2018-11-07T05:36:37.185Z,930.3
2018-11-07T05:37:37.115Z,930
2018-11-07T05:38:37.012Z,930.3
2018-11-07T05:39:36.896Z,930.3
2018-11-07T05:40:36.791Z,930.2
2018-11-07T05:41:36.702Z,930.2
2018-11-07T05:42:36.634Z,930.3
2018-11-07T05:43:36.989Z,930.2
2018-11-07T05:44:36.914Z,930.3
2018-11-07T05:45:36.841Z,930.3
2018-11-07T05:46:36.766Z,930.2
2018-11-07T05:47:36.673Z,930.1
2018-11-07T05:48:36.688Z,930.2
2018-11-07T05:49:36.652Z,930.2
2018-11-07T05:50:36.534Z,930.3
2018-11-07T05:51:36.444Z,930.3
2018-11-07T05:52:36.344Z,930.2
2018-11-07T05:53:36.715Z,930.2
2018-11-07T05:54:36.604Z,930.2
2018-11-07T05:55:36.523Z,930.2
2018-11-07T05:56:36.446Z,930.3
2018-11-07T05:57:36.347Z,930.3
2018-11-07T05:58:36.261Z,930.3
2018-11-07T05:59:36.171Z,930.3
2018-11-07T06:00:36.070Z,930.2
2018-11-07T06:01:35.976Z,930.3
2018-11-07T06:02:35.875Z,930.3
2018-11-07T06:03:36.232Z,930.2
2018-11-07T06:04:36.139Z,930.4
2018-11-07T06:05:36.049Z,930.3
2018-11-07T06:06:36.017Z,930.3
2018-11-07T06:07:35.930Z,930.3
2018-11-07T06:08:36.022Z,930.3
2018-11-07T06:09:35.927Z,930.3
2018-11-07T06:10:35.826Z,930.2
2018-11-07T06:11:35.730Z,930.2
2018-11-07T06:12:35.634Z,930.3
2018-11-07T06:13:35.982Z,930.3
2018-11-07T06:14:35.889Z,930.3
2018-11-07T06:15:35.815Z,930.3
2018-11-07T06:16:35.704Z,930.3
2018-11-07T06:17:35.593Z,930.3
2018-11-07T06:18:35.529Z,930.3
2018-11-07T06:19:35.433Z,930.3
2018-11-07T06:20:35.359Z,930.4
2018-11-07T06:21:35.251Z,930.4
2018-11-07T06:22:35.147Z,930.4
2018-11-07T06:23:35.892Z,930.2
2018-11-07T06:24:36.003Z,930.3
2018-11-07T06:25:35.930Z,930.4
2018-11-07T06:26:35.830Z,930.4
2018-11-07T06:27:35.720Z,930.3
2018-11-07T06:28:35.828Z,930.5
2018-11-07T06:29:35.726Z,930.3
2018-11-07T06:30:35.625Z,930.4
2018-11-07T06:31:35.529Z,930.4
2018-11-07T06:32:35.445Z,930.3
2018-11-07T06:33:35.613Z,930.4
2018-11-07T06:34:35.359Z,930.3
2018-11-07T06:35:35.088Z,930.5
2018-11-07T06:36:34.865Z,930.5
2018-11-07T06:37:34.633Z,930.4
2018-11-07T06:38:34.375Z,930.3
2018-11-07T06:39:34.142Z,930.3
2018-11-07T06:40:33.883Z,930.3
2018-11-07T06:41:33.625Z,930.3
2018-11-07T06:42:33.359Z,930.2
2018-11-07T06:43:33.539Z,930.3
2018-11-07T06:44:33.619Z,930.4
2018-11-07T06:45:33.379Z,930.3
2018-11-07T06:46:33.131Z,930.4
2018-11-07T06:47:32.867Z,930.4
2018-11-07T06:48:32.621Z,930.3
2018-11-07T06:49:32.352Z,930.4
2018-11-07T06:50:32.112Z,930.4
2018-11-07T06:51:31.844Z,930.5
2018-11-07T06:52:31.588Z,930.3
2018-11-07T06:53:31.952Z,930.5
2018-11-07T06:54:32.090Z,930.4
2018-11-07T06:55:32.158Z,930.4
2018-11-07T06:56:32.059Z,930.4
2018-11-07T06:57:31.977Z,930.4
2018-11-07T06:58:31.874Z,930.4
2018-11-07T06:59:31.770Z,930.4
2018-11-07T07:00:31.689Z,930.4
2018-11-07T07:01:32.264Z,930.3
2018-11-07T07:02:32.239Z,930.4
2018-11-07T07:03:32.602Z,930.3
2018-11-07T07:04:32.506Z,930.3
2018-11-07T07:05:32.425Z,930.4
2018-11-07T07:06:32.341Z,930.4
2018-11-07T07:07:32.282Z,930.4
2018-11-07T07:08:32.210Z,930.3
2018-11-07T07:09:32.207Z,930.2
2018-11-07T07:10:32.129Z,928.7
2018-11-07T07:11:32.044Z,930.4
2018-11-07T07:12:31.940Z,930.4
2018-11-07T07:13:32.314Z,930.4
2018-11-07T07:14:32.212Z,930.4
2018-11-07T07:15:32.109Z,930.3
2018-11-07T07:16:32.034Z,930.4
2018-11-07T07:17:32.763Z,930.4
2018-11-07T07:18:32.742Z,930.4
2018-11-07T07:19:32.660Z,930.4
2018-11-07T07:20:32.582Z,930.4
2018-11-07T07:21:32.504Z,930.4
2018-11-07T07:22:32.417Z,928.6
2018-11-07T07:23:32.756Z,930.3
2018-11-07T07:24:32.674Z,930.2
2018-11-07T07:25:33.200Z,930.1
2018-11-07T07:26:33.610Z,930.2
2018-11-07T07:27:33.751Z,930.2
2018-11-07T07:28:33.636Z,930.1
2018-11-07T07:29:33.539Z,930.2
2018-11-07T07:30:34.238Z,930.1
2018-11-07T07:31:34.210Z,930
2018-11-07T07:32:34.134Z,930.2
2018-11-07T07:33:35.748Z,930.4
2018-11-07T07:34:35.674Z,930.4
2018-11-07T07:35:35.570Z,930.3
2018-11-07T07:36:35.472Z,930.3
2018-11-07T07:37:35.628Z,930.3
2018-11-07T07:38:35.515Z,930.5
2018-11-07T07:39:35.418Z,930.4
2018-11-07T07:40:35.308Z,929.6
2018-11-07T07:41:35.202Z,930.2
2018-11-07T07:42:35.118Z,929.5
2018-11-07T07:43:35.467Z,930.2
2018-11-07T07:44:35.378Z,930.3
2018-11-07T07:45:35.889Z,930.4
2018-11-07T07:46:35.875Z,930.3
2018-11-07T07:47:35.774Z,930.3
2018-11-07T07:48:35.893Z,930.4
2018-11-07T07:49:35.807Z,930.4
2018-11-07T07:50:35.745Z,930.3
2018-11-07T07:51:36.037Z,930.3
2018-11-07T07:52:35.952Z,930.3
2018-11-07T07:53:40.408Z,930.1
2018-11-07T07:54:43.901Z,930.2
2018-11-07T07:55:46.520Z,930.1
2018-11-07T07:56:46.648Z,930.2
2018-11-07T07:57:46.574Z,930.1
2018-11-07T07:58:46.495Z,930.2
2018-11-07T07:59:46.398Z,930.1
2018-11-07T08:00:46.296Z,928.7
2018-11-07T08:01:46.188Z,930.2
2018-11-07T08:02:46.104Z,930.3
2018-11-07T08:03:46.466Z,930.3
2018-11-07T08:05:56.757Z,930.3
2018-11-07T08:06:57.139Z,930.4
2018-11-07T08:07:57.106Z,930.5
2018-11-07T08:08:57.012Z,930.5
2018-11-07T08:09:56.928Z,930.5
2018-11-07T08:10:56.830Z,930.5
2018-11-07T08:11:56.745Z,930.4
2018-11-07T08:12:56.671Z,930.4
2018-11-07T08:13:57.418Z,930.3
2018-11-07T08:14:57.197Z,930.4
2018-11-07T08:15:57.168Z,930.4
2018-11-07T08:16:56.915Z,930.4
2018-11-07T08:17:56.665Z,930.4
2018-11-07T08:18:56.390Z,930.5
2018-11-07T08:19:56.123Z,930.5
2018-11-07T08:20:55.880Z,930.4
2018-11-07T08:21:55.611Z,930.5
2018-11-07T08:22:55.383Z,930.4
2018-11-07T08:23:55.755Z,930.4
2018-11-07T08:24:55.662Z,930.4
2018-11-07T08:25:55.589Z,930.5
2018-11-07T08:26:55.503Z,930.5
2018-11-07T08:27:55.421Z,930.4
2018-11-07T08:28:55.523Z,930.3
2018-11-07T08:29:55.428Z,930.4
2018-11-07T08:30:56.147Z,930.5
2018-11-07T08:31:56.129Z,930.5
2018-11-07T08:32:56.052Z,930.4
2018-11-07T08:33:56.409Z,930.4
2018-11-07T08:34:56.330Z,930.4
2018-11-07T08:35:56.286Z,930.5
2018-11-07T08:36:56.194Z,930.5
2018-11-07T08:37:56.127Z,930.4
2018-11-07T08:38:56.045Z,930.4
2018-11-07T08:39:55.983Z,930.4
2018-11-07T08:40:55.899Z,930.5
2018-11-07T08:41:55.811Z,930.5
2018-11-07T08:42:55.739Z,930.5
2018-11-07T08:43:56.095Z,930.3
2018-11-07T08:44:55.985Z,930.2
2018-11-07T08:45:55.867Z,930.5
2018-11-07T08:46:55.799Z,930.4
2018-11-07T08:47:55.925Z,930.4
2018-11-07T08:48:55.846Z,930.3
2018-11-07T08:49:55.757Z,930.4
2018-11-07T08:50:55.646Z,930.4
2018-11-07T08:51:55.543Z,930.2
2018-11-07T08:52:55.439Z,930.2
2018-11-07T08:53:55.801Z,930.3
2018-11-07T08:54:56.164Z,930.4
2018-11-07T08:55:56.159Z,930.3
2018-11-07T08:56:56.091Z,930.3
2018-11-07T08:57:56.006Z,930.3
2018-11-07T08:58:55.967Z,930.4
2018-11-07T08:59:55.881Z,930.3
2018-11-07T09:00:55.803Z,930.2
2018-11-07T09:01:55.924Z,928.9
2018-11-07T09:02:55.892Z,930.3
2018-11-07T09:03:56.221Z,930.3
2018-11-07T09:04:55.978Z,930.4
2018-11-07T09:05:55.709Z,930.3
2018-11-07T09:06:55.445Z,930.4
2018-11-07T09:07:55.219Z,930.3
2018-11-07T09:08:54.943Z,930.3
2018-11-07T09:09:54.685Z,930.3
2018-11-07T09:10:54.415Z,930.3
2018-11-07T09:11:54.276Z,930.4
2018-11-07T09:12:54.010Z,930.4
2018-11-07T09:13:54.177Z,930.4
2018-11-07T09:14:53.907Z,930.4
2018-11-07T09:15:53.650Z,930.3
2018-11-07T09:16:53.387Z,930.3
2018-11-07T09:17:53.119Z,930.4
2018-11-07T09:18:55.103Z,930.2
2018-11-07T09:19:55.100Z,930.3
2018-11-07T09:20:54.855Z,930.3
2018-11-07T09:21:54.601Z,930.2
2018-11-07T09:22:54.333Z,930.3
2018-11-07T09:23:54.702Z,930.3
2018-11-07T09:24:54.599Z,930.3
2018-11-07T09:25:54.517Z,930.3
2018-11-07T09:26:54.426Z,930.3
2018-11-07T09:27:54.333Z,930.3
2018-11-07T09:28:54.236Z,930.4
2018-11-07T09:29:54.174Z,930.4
2018-11-07T09:30:54.085Z,930.3
2018-11-07T09:31:53.987Z,929.7
2018-11-07T09:32:53.880Z,930
2018-11-07T09:33:54.217Z,930.4
2018-11-07T09:34:54.133Z,930.4
2018-11-07T09:35:54.049Z,930.3
2018-11-07T09:36:53.941Z,930.3
2018-11-07T09:37:53.851Z,930.4
2018-11-07T09:38:53.763Z,930.3
2018-11-07T09:39:53.697Z,930.3
2018-11-07T09:40:53.877Z,930.4
2018-11-07T09:41:53.790Z,930.4
2018-11-07T09:42:53.700Z,930.4
2018-11-07T09:43:54.027Z,930.3
2018-11-07T09:44:53.992Z,930.2
2018-11-07T09:45:53.931Z,930.2
2018-11-07T09:46:53.827Z,930.3
2018-11-07T09:47:53.767Z,930.1
2018-11-07T09:48:53.674Z,930.2
2018-11-07T09:49:53.572Z,930.1
2018-11-07T09:50:53.470Z,930.1
2018-11-07T09:51:53.361Z,930.2
2018-11-07T09:52:53.242Z,930.2
2018-11-07T09:53:58.785Z,930.2
2018-11-07T09:55:01.797Z,930
2018-11-07T09:56:01.724Z,930.2
2018-11-07T09:57:01.647Z,930.2
2018-11-07T09:58:01.800Z,930.1
2018-11-07T09:59:02.167Z,928.7
2018-11-07T10:00:02.355Z,930
2018-11-07T10:01:02.251Z,930
2018-11-07T10:02:02.177Z,930
2018-11-07T10:03:02.125Z,930
2018-11-07T10:04:02.462Z,930.1
2018-11-07T10:05:02.459Z,930.2
2018-11-07T10:06:02.393Z,930.1
2018-11-07T10:07:02.323Z,930.1
2018-11-07T10:08:02.277Z,930.2
2018-11-07T10:09:02.198Z,929.9
2018-11-07T10:10:02.356Z,930.1
2018-11-07T10:11:02.313Z,930.1
2018-11-07T10:12:02.263Z,930.1
2018-11-07T10:13:02.174Z,930
2018-11-07T10:14:02.504Z,930
2018-11-07T10:15:02.414Z,930
2018-11-07T10:16:02.173Z,930
2018-11-07T10:17:01.921Z,930.1
2018-11-07T10:18:01.656Z,929.9
2018-11-07T10:19:01.404Z,930
2018-11-07T10:20:01.310Z,930
2018-11-07T10:21:01.084Z,930
2018-11-07T10:22:00.822Z,930
2018-11-07T10:23:00.567Z,928.8
2018-11-07T10:24:00.878Z,929.9
2018-11-07T10:25:00.791Z,930
2018-11-07T10:26:00.703Z,930
2018-11-07T10:27:01.845Z,930
2018-11-07T10:28:05.983Z,930.1
2018-11-07T10:29:08.165Z,930
2018-11-07T10:30:10.716Z,928.8
2018-11-07T10:31:10.850Z,929.9
2018-11-07T10:32:10.766Z,930.1
2018-11-07T10:33:10.681Z,930
2018-11-07T10:34:10.998Z,930
2018-11-07T10:35:10.924Z,930.1
2018-11-07T10:36:10.835Z,930
2018-11-07T10:37:10.804Z,930
2018-11-07T10:38:11.258Z,930
2018-11-07T10:39:11.225Z,929.8
2018-11-07T10:40:11.149Z,929.9
2018-11-07T10:41:11.054Z,929.9
2018-11-07T10:42:11.053Z,929.9
2018-11-07T10:43:10.951Z,928.6
2018-11-07T10:44:11.664Z,930
2018-11-07T10:45:11.581Z,929.9
2018-11-07T10:46:12.272Z,929.8
2018-11-07T10:47:12.268Z,930
2018-11-07T10:48:12.016Z,929.9
2018-11-07T10:49:11.750Z,930
2018-11-07T10:50:11.502Z,930
2018-11-07T10:51:11.422Z,929.9
2018-11-07T10:52:11.171Z,930
2018-11-07T10:53:10.919Z,929.5
2018-11-07T10:54:11.066Z,930
2018-11-07T10:55:10.800Z,929.8
2018-11-07T10:56:10.733Z,929.9
2018-11-07T10:57:10.472Z,929.8
2018-11-07T10:58:10.433Z,929.9
2018-11-07T10:59:10.354Z,929.9
2018-11-07T11:00:10.110Z,929.9
2018-11-07T11:01:10.021Z,929.9
2018-11-07T11:02:09.772Z,929.9
2018-11-07T11:03:09.734Z,929.7
2018-11-07T11:04:10.356Z,929.7
2018-11-07T11:05:10.739Z,929.7
2018-11-07T11:06:10.704Z,929.9
2018-11-07T11:07:10.604Z,929.9
2018-11-07T11:08:10.807Z,929.8
2018-11-07T11:09:10.716Z,929.6
2018-11-07T11:10:10.596Z,929.9
2018-11-07T11:11:10.990Z,929.8
2018-11-07T11:12:10.903Z,929.8
2018-11-07T11:13:10.789Z,929.8
2018-11-07T11:14:11.152Z,929.7
2018-11-07T11:15:11.062Z,929.8
2018-11-07T11:16:10.972Z,929.8
2018-11-07T11:17:11.213Z,929.7
2018-11-07T11:18:11.125Z,929.8
2018-11-07T11:19:11.050Z,929.8
2018-11-07T11:20:10.974Z,929.7
2018-11-07T11:21:10.889Z,929.6
2018-11-07T11:22:10.799Z,929.7
2018-11-07T11:23:10.948Z,929.7
2018-11-07T11:24:11.356Z,929.7
2018-11-07T11:25:11.292Z,929.8
2018-11-07T11:26:11.199Z,929.7
2018-11-07T11:27:11.517Z,929.7
2018-11-07T11:28:11.499Z,929.8
2018-11-07T11:29:11.401Z,929.7
2018-11-07T11:30:11.331Z,929.7
2018-11-07T11:31:11.248Z,929.7
2018-11-07T11:32:11.173Z,929.5
2018-11-07T11:33:11.067Z,929.5
2018-11-07T11:34:13.602Z,929.7
2018-11-07T11:35:15.738Z,929.5
2018-11-07T11:36:15.808Z,929.4
2018-11-07T11:37:15.716Z,929.5
2018-11-07T11:38:15.626Z,928.4
2018-11-07T11:39:15.546Z,929.6
2018-11-07T11:40:15.540Z,929.6
2018-11-07T11:41:16.552Z,929.5
2018-11-07T11:42:16.553Z,929.6
2018-11-07T11:43:16.456Z,929.5
2018-11-07T11:44:16.819Z,929.6
2018-11-07T11:45:16.784Z,929.5
2018-11-07T11:46:16.686Z,929.5
2018-11-07T11:47:16.571Z,929.6
2018-11-07T11:48:16.462Z,929.6
2018-11-07T11:49:16.640Z,929.5
2018-11-07T11:50:16.459Z,929.6
2018-11-07T11:51:16.564Z,929.5
2018-11-07T11:52:16.495Z,929.6
2018-11-07T11:53:16.404Z,929.5
2018-11-07T11:54:18.253Z,929.5
2018-11-07T11:55:18.172Z,929.6
2018-11-07T11:56:18.089Z,929.5
2018-11-07T11:57:17.851Z,929.6
2018-11-07T11:58:17.758Z,929.7
2018-11-07T11:59:21.038Z,929.7
2018-11-07T12:00:21.323Z,929.6
2018-11-07T12:01:22.477Z,929.6
2018-11-07T12:02:23.343Z,929.6
2018-11-07T12:03:23.129Z,929.6
2018-11-07T12:04:27.516Z,929.6
2018-11-07T12:05:27.679Z,929.5
2018-11-07T12:06:27.822Z,929.4
2018-11-07T12:07:27.801Z,929.4
2018-11-07T12:08:31.504Z,929.6
2018-11-07T12:09:32.147Z,929.6
2018-11-07T12:10:32.062Z,929.7
2018-11-07T12:11:33.211Z,929.7
2018-11-07T12:12:33.132Z,929.6
2018-11-07T12:13:36.343Z,929.6
2018-11-07T12:14:37.892Z,929.6
2018-11-07T12:15:37.807Z,929.7
2018-11-07T12:16:39.851Z,929.6
2018-11-07T12:17:40.182Z,929.6
2018-11-07T12:18:49.028Z,929.4
2018-11-07T12:19:48.938Z,929.5
2018-11-07T12:20:49.047Z,929.6
2018-11-07T12:21:48.969Z,929.5
2018-11-07T12:22:51.659Z,929.5
2018-11-07T12:23:51.563Z,929.5
2018-11-07T12:24:52.913Z,929.5
2018-11-07T12:25:54.071Z,929.6
2018-11-07T12:26:54.895Z,929.6
2018-11-07T12:27:55.066Z,929.4
2018-11-07T12:28:54.969Z,929.4
2018-11-07T12:29:55.914Z,929.4
2018-11-07T12:30:59.507Z,929.5
2018-11-07T12:31:59.451Z,929.5
2018-11-07T12:33:05.145Z,929.5
2018-11-07T12:34:06.059Z,929.5
2018-11-07T12:35:16.122Z,929.3
2018-11-07T12:36:16.379Z,929.4
2018-11-07T12:37:17.344Z,929.5
2018-11-07T12:38:17.255Z,929.4
2018-11-07T12:39:24.034Z,929.5
2018-11-07T12:40:23.977Z,929.5
2018-11-07T12:41:23.933Z,929.6
2018-11-07T12:42:24.105Z,929.5
2018-11-07T12:43:27.111Z,929.6
2018-11-07T12:44:30.833Z,929.5
2018-11-07T12:45:32.223Z,929.6
2018-11-07T12:46:32.344Z,929.5
2018-11-07T12:47:39.032Z,929.4
2018-11-07T12:48:38.944Z,929.4
2018-11-07T12:49:42.570Z,929.5
2018-11-07T12:50:42.576Z,929.6
2018-11-07T12:51:42.716Z,929.6
2018-11-07T12:52:42.685Z,929.5
2018-11-07T12:53:42.609Z,929.6
2018-11-07T12:54:45.750Z,929.5
2018-11-07T12:55:46.330Z,929.6
2018-11-07T12:56:46.459Z,929.4
2018-11-07T12:57:47.494Z,929.6
2018-11-07T12:58:50.264Z,929.4
2018-11-07T12:59:50.195Z,929.5
2018-11-07T13:00:51.102Z,929.5
2018-11-07T13:01:52.030Z,929.4
2018-11-07T13:02:52.624Z,929.6
2018-11-07T13:03:52.832Z,929.7
2018-11-07T13:04:52.738Z,929.6
2018-11-07T13:05:53.546Z,929.6
2018-11-07T13:06:53.751Z,929.5
2018-11-07T13:07:53.925Z,929.7
2018-11-07T13:08:54.082Z,929.6
2018-11-07T13:09:54.008Z,929.7
2018-11-07T13:10:56.718Z,929.6
2018-11-07T13:11:56.644Z,929.6
2018-11-07T13:12:56.596Z,929.6
2018-11-07T13:13:56.518Z,929.5
2018-11-07T13:14:56.427Z,929.7
2018-11-07T13:15:56.830Z,929.6
2018-11-07T13:16:56.756Z,929.7
2018-11-07T13:17:56.684Z,929.6
2018-11-07T13:18:56.608Z,929.6
2018-11-07T13:19:56.554Z,929.5
2018-11-07T13:20:56.476Z,929.5
2018-11-07T13:21:56.376Z,929.6
2018-11-07T13:22:56.292Z,929.7
2018-11-07T13:23:56.223Z,929.6
2018-11-07T13:24:56.142Z,929.7
2018-11-07T13:25:56.476Z,929.6
2018-11-07T13:26:56.383Z,929.7
2018-11-07T13:27:56.616Z,929.7
2018-11-07T13:28:56.560Z,929.7
2018-11-07T13:29:56.462Z,929.7
2018-11-07T13:30:56.396Z,929.7
2018-11-07T13:31:56.312Z,929.7
2018-11-07T13:32:56.271Z,929.8
2018-11-07T13:33:56.239Z,929.6
2018-11-07T13:34:57.086Z,929.8
2018-11-07T13:35:57.507Z,929.8
2018-11-07T13:36:58.875Z,929.8
2018-11-07T13:38:01.065Z,929.9
2018-11-07T13:39:04.572Z,929.8
2018-11-07T13:40:04.705Z,929.8
2018-11-07T13:41:05.470Z,929.7
2018-11-07T13:42:05.462Z,929.9
2018-11-07T13:43:05.378Z,929.9
2018-11-07T13:44:05.380Z,929.9
2018-11-07T13:45:05.281Z,929.9
2018-11-07T13:46:06.505Z,930
2018-11-07T13:47:06.508Z,929.8
2018-11-07T13:48:06.430Z,929.9
2018-11-07T13:49:06.372Z,929.9
2018-11-07T13:50:06.282Z,929.8
2018-11-07T13:51:06.178Z,929.8
2018-11-07T13:52:06.093Z,929.8
2018-11-07T13:53:06.542Z,929.9
2018-11-07T13:54:06.539Z,929.8
2018-11-07T13:55:06.478Z,930
2018-11-07T13:56:06.824Z,929.9
2018-11-07T13:57:06.744Z,929.8
2018-11-07T13:58:06.650Z,929.8
2018-11-07T13:59:06.778Z,929.8
2018-11-07T14:00:06.695Z,929.8
2018-11-07T14:01:06.623Z,929.9
2018-11-07T14:02:06.535Z,930
2018-11-07T14:03:06.427Z,929.9
2018-11-07T14:04:06.350Z,930
2018-11-07T14:05:06.523Z,930
2018-11-07T14:06:08.077Z,930
2018-11-07T14:07:07.998Z,929.9
2018-11-07T14:08:07.921Z,930
2018-11-07T14:09:07.816Z,929.9
2018-11-07T14:10:07.737Z,929.9
2018-11-07T14:11:07.648Z,929.8
2018-11-07T14:12:07.576Z,930
2018-11-07T14:13:07.486Z,929.9